createdAt,value
2022-09-23T00:01:20.462Z,100776.00
2022-09-23T00:03:49.711Z,100779.72
2022-09-23T00:06:20.454Z,100782.59
2022-09-23T00:08:49.900Z,100784.06
2022-09-23T00:11:20.877Z,100780.00
2022-09-23T00:13:51.527Z,100765.47
2022-09-23T00:16:24.356Z,100768.09
2022-09-23T00:18:52.890Z,100771.84
2022-09-23T00:21:23.027Z,100757.06
2022-09-23T00:23:51.954Z,100767.78
2022-09-23T00:26:22.541Z,100762.75
2022-09-23T00:28:52.168Z,100752.44
2022-09-23T00:31:23.722Z,100763.00
2022-09-23T00:33:55.513Z,100764.06
2022-09-23T00:36:24.019Z,100752.78
2022-09-23T00:38:52.964Z,100748.72
2022-09-23T00:41:21.539Z,100756.78
2022-09-23T00:43:53.109Z,100755.09
2022-09-23T00:46:30.509Z,100755.22
2022-09-23T00:49:04.502Z,100758.00
2022-09-23T00:51:36.119Z,100746.72
2022-09-23T00:54:04.896Z,100747.69
2022-09-23T00:56:34.546Z,100739.03
2022-09-23T00:59:04.303Z,100739.28
2022-09-23T01:01:34.795Z,100743.59
2022-09-23T01:04:03.815Z,100740.97
2022-09-23T01:06:33.133Z,100737.72
2022-09-23T01:09:02.052Z,100736.03
2022-09-23T01:11:42.540Z,100734.50
2022-09-23T01:14:28.865Z,100732.81
2022-09-23T01:17:05.525Z,100731.38
2022-09-23T01:19:59.973Z,100736.78
2022-09-23T01:22:37.605Z,100738.59
2022-09-23T01:25:29.188Z,100734.28
2022-09-23T01:28:19.315Z,100735.47
2022-09-23T01:30:58.930Z,100726.38
2022-09-23T01:33:36.743Z,100724.69
2022-09-23T01:36:12.934Z,100727.34
2022-09-23T01:38:51.487Z,100720.38
2022-09-23T01:41:38.995Z,100718.69
2022-09-23T01:44:11.182Z,100726.72
2022-09-23T01:46:45.762Z,100719.75
2022-09-23T01:49:21.673Z,100724.44
2022-09-23T01:51:56.474Z,100715.81
2022-09-23T01:54:32.574Z,100717.72
2022-09-23T01:57:04.901Z,100719.63
2022-09-23T01:59:38.154Z,100717.13
2022-09-23T02:02:14.559Z,100721.81
2022-09-23T02:04:49.454Z,100714.38
2022-09-23T02:07:23.713Z,100712.94
2022-09-23T02:09:59.233Z,100715.00
2022-09-23T02:12:31.686Z,100721.31
2022-09-23T02:15:04.866Z,100710.19
2022-09-23T02:17:41.046Z,100709.78
2022-09-23T02:20:10.767Z,100717.84
2022-09-23T02:22:42.923Z,100710.25
2022-09-23T02:25:13.258Z,100703.44
2022-09-23T02:27:48.751Z,100708.81
2022-09-23T02:30:22.484Z,100706.19
2022-09-23T02:32:59.613Z,100709.78
2022-09-23T02:35:33.723Z,100710.97
2022-09-23T02:38:15.980Z,100707.63
2022-09-23T02:40:55.272Z,100709.53
2022-09-23T02:43:31.621Z,100708.00
2022-09-23T02:46:00.392Z,100695.16
2022-09-23T02:48:35.536Z,100697.56
2022-09-23T02:51:05.028Z,100691.06
2022-09-23T02:53:34.987Z,100707.28
2022-09-23T02:56:03.917Z,100700.31
2022-09-23T02:58:32.910Z,100692.75
2022-09-23T03:01:09.625Z,100700.66
2022-09-23T03:03:47.585Z,100696.56
2022-09-23T03:06:28.984Z,100701.13
2022-09-23T03:09:03.934Z,100696.00
2022-09-23T03:11:37.804Z,100695.38
2022-09-23T03:14:18.307Z,100695.50
2022-09-23T03:16:56.066Z,100693.94
2022-09-23T03:19:30.871Z,100687.84
2022-09-23T03:22:06.174Z,100679.53
2022-09-23T03:24:36.601Z,100680.72
2022-09-23T03:27:14.054Z,100694.50
2022-09-23T03:29:47.622Z,100697.34
2022-09-23T03:32:18.598Z,100687.06
2022-09-23T03:34:51.656Z,100684.78
2022-09-23T03:37:24.894Z,100682.97
2022-09-23T03:39:58.729Z,100681.19
2022-09-23T03:42:30.458Z,100681.44
2022-09-23T03:45:01.567Z,100676.41
2022-09-23T03:47:31.226Z,100678.41
2022-09-23T03:50:02.468Z,100684.75
2022-09-23T03:52:30.945Z,100676.22
2022-09-23T03:54:59.694Z,100673.97
2022-09-23T03:57:28.166Z,100674.06
2022-09-23T03:59:56.705Z,100667.25
2022-09-23T04:02:25.329Z,100669.16
2022-09-23T04:04:54.058Z,100671.06
2022-09-23T04:07:24.217Z,100678.25
2022-09-23T04:09:52.979Z,100672.34
2022-09-23T04:12:21.463Z,100677.84
2022-09-23T04:14:49.948Z,100667.53
2022-09-23T04:17:18.419Z,100666.22
2022-09-23T04:19:46.778Z,100677.47
2022-09-23T04:22:15.148Z,100676.03
2022-09-23T04:24:45.147Z,100669.31
2022-09-23T04:27:13.740Z,100673.13
2022-09-23T04:29:42.164Z,100675.03
2022-09-23T04:32:10.809Z,100678.59
2022-09-23T04:34:39.294Z,100678.84
2022-09-23T04:37:07.882Z,100668.63
2022-09-23T04:39:36.515Z,100672.34
2022-09-23T04:42:07.334Z,100668.97
2022-09-23T04:44:35.827Z,100677.81
2022-09-23T04:47:04.526Z,100673.53
2022-09-23T04:49:33.939Z,100678.97
2022-09-23T04:52:03.014Z,100684.47
2022-09-23T04:54:31.845Z,100682.78
2022-09-23T04:57:00.313Z,100687.31
2022-09-23T04:59:30.685Z,100688.25
2022-09-23T05:01:59.113Z,100692.78
2022-09-23T05:04:27.793Z,100691.13
2022-09-23T05:06:59.494Z,100687.75
2022-09-23T05:09:31.511Z,100682.50
2022-09-23T05:12:00.243Z,100688.59
2022-09-23T05:14:30.078Z,100685.84
2022-09-23T05:16:58.437Z,100687.75
2022-09-23T05:19:27.311Z,100689.56
2022-09-23T05:21:55.737Z,100686.50
2022-09-23T05:24:25.615Z,100694.03
2022-09-23T05:26:55.981Z,100689.50
2022-09-23T05:29:24.313Z,100692.00
2022-09-23T05:31:54.224Z,100690.09
2022-09-23T05:34:23.447Z,100691.78
2022-09-23T05:36:51.977Z,100687.97
2022-09-23T05:39:20.417Z,100696.38
2022-09-23T05:41:49.222Z,100695.09
2022-09-23T05:44:17.777Z,100693.28
2022-09-23T05:46:46.406Z,100694.88
2022-09-23T05:49:16.561Z,100696.34
2022-09-23T05:51:45.164Z,100691.72
2022-09-23T05:54:13.630Z,100693.16
2022-09-23T05:56:42.014Z,100685.16
2022-09-23T05:59:13.079Z,100689.13
2022-09-23T06:01:41.622Z,100683.16
2022-09-23T06:04:15.625Z,100689.72
2022-09-23T06:06:44.392Z,100692.13
2022-09-23T06:09:14.874Z,100697.06
2022-09-23T06:11:43.727Z,100693.03
2022-09-23T06:14:14.071Z,100692.69
2022-09-23T06:16:43.275Z,100694.03
2022-09-23T06:19:12.094Z,100693.44
2022-09-23T06:21:42.457Z,100687.84
2022-09-23T06:24:15.012Z,100692.53
2022-09-23T06:26:45.230Z,100698.19
2022-09-23T06:29:14.711Z,100690.53
2022-09-23T06:31:43.678Z,100697.03
2022-09-23T06:34:14.630Z,100699.53
2022-09-23T06:36:46.346Z,100702.31
2022-09-23T06:39:16.153Z,100696.81
2022-09-23T06:41:44.947Z,100689.53
2022-09-23T06:44:14.038Z,100700.31
2022-09-23T06:46:42.614Z,100709.28
2022-09-23T06:49:13.598Z,100703.44
2022-09-23T06:51:42.585Z,100700.56
2022-09-23T06:54:12.482Z,100707.88
2022-09-23T06:56:41.442Z,100708.28
2022-09-23T06:59:13.288Z,100701.66
2022-09-23T07:01:41.913Z,100704.53
2022-09-23T07:04:11.123Z,100702.13
2022-09-23T07:06:39.702Z,100711.03
2022-09-23T07:09:09.309Z,100710.16
2022-09-23T07:11:40.785Z,100712.44
2022-09-23T07:14:09.161Z,100708.69
2022-09-23T07:16:38.076Z,100706.47
2022-09-23T07:19:06.665Z,100712.22
2022-09-23T07:21:35.230Z,100698.66
2022-09-23T07:24:04.022Z,100704.84
2022-09-23T07:26:34.298Z,100707.72
2022-09-23T07:29:05.338Z,100713.91
2022-09-23T07:31:39.020Z,100709.78
2022-09-23T07:34:10.128Z,100699.16
2022-09-23T07:36:41.307Z,100703.88
2022-09-23T07:39:11.321Z,100706.03
2022-09-23T07:41:41.949Z,100706.28
2022-09-23T07:44:13.053Z,100704.47
2022-09-23T07:46:41.831Z,100703.72
2022-09-23T07:49:10.831Z,100699.69
2022-09-23T07:51:42.147Z,100693.88
2022-09-23T07:54:13.903Z,100706.13
2022-09-23T07:56:43.272Z,100689.69
2022-09-23T07:59:15.653Z,100697.78
2022-09-23T08:01:46.499Z,100700.28
2022-09-23T08:04:17.360Z,100700.00
2022-09-23T08:06:48.662Z,100690.78
2022-09-23T08:09:18.141Z,100695.34
2022-09-23T08:11:46.810Z,100689.88
2022-09-23T08:14:18.167Z,100684.81
2022-09-23T08:16:47.889Z,100674.00
2022-09-23T08:19:16.463Z,100675.47
2022-09-23T08:21:47.714Z,100672.53
2022-09-23T08:24:18.443Z,100673.84
2022-09-23T08:26:48.622Z,100671.56
2022-09-23T08:29:19.811Z,100657.81
2022-09-23T08:31:49.783Z,100655.72
2022-09-23T08:34:18.758Z,100661.66
2022-09-23T08:36:47.761Z,100644.31
2022-09-23T08:39:17.771Z,100653.72
2022-09-23T08:41:59.047Z,100658.81
2022-09-23T08:44:35.727Z,100657.50
2022-09-23T08:47:12.888Z,100665.25
2022-09-23T08:49:49.565Z,100641.66
2022-09-23T08:52:25.205Z,100661.56
2022-09-23T08:54:55.585Z,100662.16
2022-09-23T08:57:34.964Z,100660.09
2022-09-23T09:00:06.058Z,100663.78
2022-09-23T09:02:37.029Z,100662.97
2022-09-23T09:05:10.267Z,100656.47
2022-09-23T09:07:42.314Z,100660.00
2022-09-23T09:10:19.611Z,100656.69
2022-09-23T09:12:49.630Z,100658.38
2022-09-23T09:15:24.759Z,100655.56
2022-09-23T09:18:02.665Z,100667.03
2022-09-23T09:20:40.061Z,100672.69
2022-09-23T09:23:21.696Z,100661.72
2022-09-23T09:25:52.636Z,100666.38
2022-09-23T09:28:26.894Z,100658.75
2022-09-23T09:30:59.352Z,100665.75
2022-09-23T09:33:32.830Z,100657.44
2022-09-23T09:36:30.836Z,100652.31
2022-09-23T09:39:00.129Z,100656.81
2022-09-23T09:41:31.446Z,100653.84
2022-09-23T09:44:03.777Z,100648.16
2022-09-23T09:46:52.611Z,100649.25
2022-09-23T09:49:31.382Z,100652.91
2022-09-23T09:52:21.740Z,100648.88
2022-09-23T09:54:51.194Z,100644.06
2022-09-23T09:57:35.031Z,100633.56
2022-09-23T10:00:20.998Z,100642.91
2022-09-23T10:02:53.828Z,100636.22
2022-09-23T10:05:28.614Z,100642.03
2022-09-23T10:07:57.017Z,100637.69
2022-09-23T10:10:34.446Z,100639.34
2022-09-23T10:13:15.999Z,100633.81
2022-09-23T10:15:45.903Z,100635.94
2022-09-23T10:18:21.336Z,100634.41
2022-09-23T10:20:50.849Z,100631.03
2022-09-23T10:23:24.355Z,100623.31
2022-09-23T10:26:01.460Z,100622.63
2022-09-23T10:28:41.575Z,100636.63
2022-09-23T10:31:13.219Z,100628.94
2022-09-23T10:33:48.173Z,100620.69
2022-09-23T10:36:17.986Z,100612.13
2022-09-23T10:38:48.821Z,100613.03
2022-09-23T10:41:47.209Z,100607.56
2022-09-23T10:44:51.283Z,100598.34
2022-09-23T10:47:32.462Z,100600.78
2022-09-23T10:50:23.305Z,100598.88
2022-09-23T10:53:06.423Z,100594.06
2022-09-23T10:55:56.057Z,100596.19
2022-09-23T10:58:50.819Z,100588.44
2022-09-23T11:01:29.821Z,100590.38
2022-09-23T11:04:25.126Z,100581.16
2022-09-23T11:07:14.335Z,100576.13
2022-09-23T11:10:00.140Z,100581.88
2022-09-23T11:12:37.349Z,100569.09
2022-09-23T11:15:21.271Z,100562.66
2022-09-23T11:18:11.642Z,100559.75
2022-09-23T11:20:49.370Z,100558.38
2022-09-23T11:23:38.476Z,100553.69
2022-09-23T11:26:17.621Z,100550.06
2022-09-23T11:29:08.611Z,100551.81
2022-09-23T11:31:43.799Z,100540.53
2022-09-23T11:34:35.461Z,100551.94
2022-09-23T11:37:08.449Z,100543.75
2022-09-23T11:39:46.210Z,100537.38
2022-09-23T11:42:21.586Z,100541.25
2022-09-23T11:44:57.962Z,100532.06
2022-09-23T11:47:30.841Z,100530.84
2022-09-23T11:50:04.534Z,100524.66
2022-09-23T11:52:37.855Z,100525.50
2022-09-23T11:55:22.797Z,100519.13
2022-09-23T11:57:54.975Z,100520.16
2022-09-23T12:00:26.746Z,100524.84
2022-09-23T12:03:06.241Z,100523.59
2022-09-23T12:05:40.787Z,100516.66
2022-09-23T12:08:19.545Z,100512.31
2022-09-23T12:10:56.399Z,100513.31
2022-09-23T12:13:33.378Z,100503.34
2022-09-23T12:16:44.076Z,100512.09
2022-09-23T12:19:27.259Z,100504.22
2022-09-23T12:22:17.395Z,100508.16
2022-09-23T12:24:56.260Z,100498.41
2022-09-23T12:27:34.365Z,100501.06
2022-09-23T12:30:05.335Z,100493.59
2022-09-23T12:32:34.403Z,100501.06
2022-09-23T12:35:03.023Z,100500.25
2022-09-23T12:37:36.221Z,100495.91
2022-09-23T12:40:09.976Z,100499.22
2022-09-23T12:42:46.211Z,100497.09
2022-09-23T12:45:37.544Z,100498.03
2022-09-23T12:48:24.205Z,100482.38
2022-09-23T12:50:56.012Z,100486.63
2022-09-23T12:53:56.075Z,100474.69
2022-09-23T12:56:30.518Z,100476.31
2022-09-23T12:59:02.679Z,100477.31
2022-09-23T13:01:38.572Z,100467.53
2022-09-23T13:04:24.484Z,100466.31
2022-09-23T13:07:00.123Z,100470.13
2022-09-23T13:09:31.546Z,100451.53
2022-09-23T13:12:03.120Z,100455.97
2022-09-23T13:14:35.267Z,100446.63
2022-09-23T13:17:03.682Z,100438.28
2022-09-23T13:19:47.723Z,100443.22
2022-09-23T13:22:36.222Z,100431.03
2022-09-23T13:25:19.355Z,100432.25
2022-09-23T13:27:51.323Z,100430.25
2022-09-23T13:30:26.354Z,100426.25
2022-09-23T13:33:04.958Z,100422.34
2022-09-23T13:35:37.893Z,100421.44
2022-09-23T13:38:13.242Z,100416.19
2022-09-23T13:40:42.778Z,100414.69
2022-09-23T13:43:18.553Z,100414.41
2022-09-23T13:45:48.877Z,100411.22
2022-09-23T13:48:17.878Z,100408.66
2022-09-23T13:50:50.482Z,100407.41
2022-09-23T13:53:27.783Z,100398.03
2022-09-23T13:56:05.054Z,100399.81
2022-09-23T13:58:35.031Z,100401.50
2022-09-23T14:01:08.759Z,100398.25
2022-09-23T14:03:39.112Z,100391.78
2022-09-23T14:06:13.221Z,100386.16
2022-09-23T14:08:45.452Z,100385.53
2022-09-23T14:11:17.156Z,100394.44
2022-09-23T14:13:47.706Z,100388.19
2022-09-23T14:16:19.859Z,100384.66
2022-09-23T14:18:50.042Z,100382.84
2022-09-23T14:21:35.407Z,100387.41
2022-09-23T14:24:18.862Z,100382.00
2022-09-23T14:26:50.382Z,100379.56
2022-09-23T14:29:21.480Z,100387.50
2022-09-23T14:31:58.428Z,100378.66
2022-09-23T14:34:42.117Z,100376.13
2022-09-23T14:37:37.858Z,100361.06
2022-09-23T14:40:11.935Z,100362.97
2022-09-23T14:42:43.492Z,100362.72
2022-09-23T14:45:18.293Z,100357.56
2022-09-23T14:47:52.442Z,100354.28
2022-09-23T14:50:39.993Z,100344.78
2022-09-23T14:53:37.275Z,100350.22
2022-09-23T14:56:16.026Z,100346.03
2022-09-23T14:58:51.908Z,100351.53
2022-09-23T15:01:38.850Z,100344.72
2022-09-23T15:04:30.644Z,100346.34
2022-09-23T15:07:02.648Z,100346.19
2022-09-23T15:09:34.469Z,100337.16
2022-09-23T15:12:06.996Z,100338.91
2022-09-23T15:14:42.102Z,100335.03
2022-09-23T15:17:21.524Z,100334.81
2022-09-23T15:19:57.034Z,100330.66
2022-09-23T15:22:26.549Z,100327.56
2022-09-23T15:24:56.643Z,100323.44
2022-09-23T15:27:29.744Z,100322.41
2022-09-23T15:30:14.873Z,100318.56
2022-09-23T15:32:43.929Z,100323.72
2022-09-23T15:35:16.754Z,100319.19
2022-09-23T15:37:46.505Z,100322.31
2022-09-23T15:40:26.554Z,100314.88
2022-09-23T15:42:58.324Z,100314.06
2022-09-23T15:45:34.545Z,100316.41
2022-09-23T15:48:07.565Z,100318.28
2022-09-23T15:50:38.801Z,100315.00
2022-09-23T15:53:07.681Z,100317.06
2022-09-23T15:55:36.038Z,100319.34
2022-09-23T15:58:04.550Z,100318.50
2022-09-23T16:00:34.577Z,100316.84
2022-09-23T16:03:04.496Z,100315.84
2022-09-23T16:05:37.096Z,100313.34
2022-09-23T16:08:09.277Z,100316.03
2022-09-23T16:10:38.931Z,100312.50
2022-09-23T16:13:13.196Z,100313.31
2022-09-23T16:15:42.110Z,100308.78
2022-09-23T16:18:11.898Z,100313.72
2022-09-23T16:20:43.930Z,100316.97
2022-09-23T16:23:34.841Z,100309.69
2022-09-23T16:26:08.545Z,100317.69
2022-09-23T16:28:37.012Z,100312.09
2022-09-23T16:31:05.632Z,100309.81
2022-09-23T16:33:34.179Z,100310.38
2022-09-23T16:36:03.127Z,100325.47
2022-09-23T16:38:33.765Z,100313.22
2022-09-23T16:41:03.177Z,100318.91
2022-09-23T16:43:35.180Z,100319.94
2022-09-23T16:46:03.650Z,100323.16
2022-09-23T16:48:32.101Z,100319.78
2022-09-23T16:51:04.755Z,100318.09
2022-09-23T16:53:35.485Z,100321.94
2022-09-23T16:56:09.567Z,100310.09
2022-09-23T16:58:38.050Z,100310.88
2022-09-23T17:01:24.549Z,100312.03
2022-09-23T17:03:53.486Z,100309.88
2022-09-23T17:06:24.119Z,100305.66
2022-09-23T17:08:53.980Z,100305.16
2022-09-23T17:11:22.627Z,100301.34
2022-09-23T17:13:51.889Z,100303.13
2022-09-23T17:16:25.467Z,100301.59
2022-09-23T17:18:55.665Z,100299.03
2022-09-23T17:21:26.119Z,100305.53
2022-09-23T17:23:56.870Z,100297.16
2022-09-23T17:26:27.457Z,100294.53
2022-09-23T17:28:57.743Z,100292.31
2022-09-23T17:31:26.945Z,100305.06
2022-09-23T17:33:55.815Z,100297.13
2022-09-23T17:36:24.976Z,100301.72
2022-09-23T17:38:54.731Z,100296.84
2022-09-23T17:41:24.572Z,100300.91
2022-09-23T17:43:56.878Z,100294.19
2022-09-23T17:46:25.383Z,100295.28
2022-09-23T17:48:55.892Z,100290.38
2022-09-23T17:51:25.686Z,100293.78
2022-09-23T17:53:54.117Z,100292.06
2022-09-23T17:56:26.065Z,100293.97
2022-09-23T17:58:55.436Z,100286.34
2022-09-23T18:01:25.669Z,100298.13
2022-09-23T18:03:56.099Z,100298.19
2022-09-23T18:06:26.296Z,100295.59
2022-09-23T18:08:56.148Z,100285.81
2022-09-23T18:11:27.516Z,100286.88
2022-09-23T18:13:57.897Z,100290.91
2022-09-23T18:16:28.141Z,100295.31
2022-09-23T18:18:58.043Z,100292.41
2022-09-23T18:21:28.802Z,100301.97
2022-09-23T18:24:15.716Z,100297.31
2022-09-23T18:26:47.688Z,100291.84
2022-09-23T18:29:16.461Z,100288.41
2022-09-23T18:31:45.984Z,100305.47
2022-09-23T18:34:16.663Z,100294.63
2022-09-23T18:36:45.647Z,100300.31
2022-09-23T18:39:14.354Z,100299.50
2022-09-23T18:41:42.968Z,100297.22
2022-09-23T18:44:12.967Z,100291.75
2022-09-23T18:46:41.401Z,100296.13
2022-09-23T18:49:28.379Z,100298.13
2022-09-23T18:51:58.215Z,100298.81
2022-09-23T18:54:29.115Z,100284.66
2022-09-23T18:56:59.448Z,100297.84
2022-09-23T18:59:30.750Z,100290.53
2022-09-23T19:01:59.164Z,100296.69
2022-09-23T19:04:29.261Z,100290.38
2022-09-23T19:06:58.171Z,100292.88
2022-09-23T19:09:26.766Z,100291.09
2022-09-23T19:11:55.704Z,100287.44
2022-09-23T19:14:26.863Z,100287.25
2022-09-23T19:16:56.755Z,100288.75
2022-09-23T19:19:25.970Z,100287.75
2022-09-23T19:21:55.116Z,100290.06
2022-09-23T19:24:24.267Z,100284.75
2022-09-23T19:26:53.472Z,100283.56
2022-09-23T19:29:23.762Z,100267.47
2022-09-23T19:31:52.659Z,100270.78
2022-09-23T19:34:26.342Z,100272.09
2022-09-23T19:36:57.555Z,100265.94
2022-09-23T19:39:28.851Z,100270.72
2022-09-23T19:41:57.584Z,100264.53
2022-09-23T19:44:28.013Z,100264.03
2022-09-23T19:46:57.538Z,100273.00
2022-09-23T19:49:30.324Z,100265.00
2022-09-23T19:51:59.412Z,100274.63
2022-09-23T19:54:28.203Z,100276.13
2022-09-23T19:56:56.941Z,100273.44
2022-09-23T19:59:26.646Z,100278.91
2022-09-23T20:01:55.339Z,100278.88
2022-09-23T20:04:24.514Z,100273.00
2022-09-23T20:06:54.985Z,100271.16
2022-09-23T20:09:23.654Z,100259.19
2022-09-23T20:11:52.553Z,100260.13
2022-09-23T20:14:22.947Z,100262.13
2022-09-23T20:16:52.402Z,100254.78
2022-09-23T20:19:21.349Z,100255.09
2022-09-23T20:22:10.219Z,100264.38
2022-09-23T20:24:40.384Z,100262.03
2022-09-23T20:27:11.626Z,100254.06
2022-09-23T20:29:43.393Z,100266.19
2022-09-23T20:32:12.854Z,100265.69
2022-09-23T20:34:44.316Z,100259.53
2022-09-23T20:37:13.430Z,100254.69
2022-09-23T20:39:43.837Z,100254.03
2022-09-23T20:42:14.101Z,100257.81
2022-09-23T20:44:44.281Z,100244.03
2022-09-23T20:47:14.576Z,100251.16
2022-09-23T20:49:44.198Z,100248.00
2022-09-23T20:52:14.084Z,100250.78
2022-09-23T20:54:44.947Z,100244.97
2022-09-23T20:57:15.002Z,100243.47
2022-09-23T20:59:44.444Z,100243.94
2022-09-23T21:02:13.646Z,100244.25
2022-09-23T21:04:44.990Z,100244.56
2022-09-23T21:07:13.518Z,100247.84
2022-09-23T21:09:44.020Z,100244.66
2022-09-23T21:12:12.383Z,100243.28
2022-09-23T21:14:42.239Z,100242.78
2022-09-23T21:17:10.688Z,100249.22
2022-09-23T21:19:39.098Z,100240.91
2022-09-23T21:22:07.586Z,100246.50
2022-09-23T21:27:27.353Z,100241.44
2022-09-23T21:29:56.025Z,100244.41
2022-09-23T21:32:24.515Z,100257.97
2022-09-23T21:34:53.027Z,100249.47
2022-09-23T21:37:22.000Z,100251.44
2022-09-23T21:40:11.139Z,100227.28
2022-09-23T21:42:41.070Z,100247.31
2022-09-23T21:45:10.166Z,100262.66
2022-09-23T21:47:38.576Z,100259.59
2022-09-23T21:50:08.290Z,100257.41
2022-09-23T21:52:36.755Z,100249.09
2022-09-23T21:55:05.464Z,100255.50
2022-09-23T21:57:33.898Z,100262.09
2022-09-23T22:00:04.181Z,100251.50
2022-09-23T22:02:33.007Z,100246.13
2022-09-23T22:05:02.163Z,100241.41
2022-09-23T22:07:32.275Z,100242.09
2022-09-23T22:10:00.761Z,100228.97
2022-09-23T22:12:29.244Z,100248.56
2022-09-23T22:14:57.790Z,100243.53
2022-09-23T22:17:27.753Z,100240.03
2022-09-23T22:19:56.170Z,100245.78
2022-09-23T22:22:24.720Z,100243.81
2022-09-23T22:24:53.318Z,100228.47
2022-09-23T22:27:22.418Z,100234.72
2022-09-23T22:30:08.117Z,100229.69
2022-09-23T22:32:46.417Z,100230.78
2022-09-23T22:35:18.010Z,100227.84
2022-09-23T22:37:47.564Z,100224.81
2022-09-23T22:40:17.619Z,100229.66
2022-09-23T22:42:46.133Z,100220.47
2022-09-23T22:45:14.752Z,100219.63
2022-09-23T22:47:46.174Z,100219.78
2022-09-23T22:50:15.522Z,100217.16
2022-09-23T22:52:44.221Z,100215.19
2022-09-23T22:55:13.122Z,100222.41
2022-09-23T22:57:41.719Z,100216.28
2022-09-23T23:00:12.423Z,100213.22
2022-09-23T23:02:42.708Z,100217.53
2022-09-23T23:05:14.738Z,100216.34
2022-09-23T23:07:43.189Z,100217.72
2022-09-23T23:10:11.712Z,100211.28
2022-09-23T23:12:41.299Z,100205.72
2022-09-23T23:15:12.720Z,100211.72
2022-09-23T23:17:43.821Z,100210.75
2022-09-23T23:20:13.731Z,100208.22
2022-09-23T23:22:42.216Z,100209.34
2022-09-23T23:25:11.096Z,100205.88
2022-09-23T23:27:39.712Z,100205.19
2022-09-23T23:30:09.731Z,100200.03
2022-09-23T23:32:38.382Z,100205.47
2022-09-23T23:35:07.626Z,100197.16
2022-09-23T23:37:37.544Z,100203.53
2022-09-23T23:40:06.938Z,100199.94
2022-09-23T23:42:35.573Z,100195.06
2022-09-23T23:45:04.073Z,100199.66
2022-09-23T23:47:32.466Z,100193.53
2022-09-23T23:50:00.899Z,100195.34
2022-09-23T23:52:29.334Z,100195.50
2022-09-23T23:54:59.109Z,100185.22
2022-09-23T23:57:27.537Z,100182.56
2022-09-23T23:59:55.933Z,100186.03
